DAL1717 EIDW-LFPG
Flight info
| Callsign | DAL1717 |
|---|---|
| Flight time | 1h 17m |
| Altitude | 37000 |
| Route | ENDEQ3J ENDEQ Q36 EPOXI L15 KEPAD L151 MID Y803 SFD/N0435F250 UM605 BIBAX |
| Aircraft | A320/M-SDE3FGHIRWY/LB1 |
Departure
| Time | 2026-05-03 21:39 |
|---|---|
| Airport | Dublin Airport (EIDW) |
Arrival
| Time | 2026-05-03 22:56 |
|---|---|
| Airport | Charles de Gaulle International Airport (LFPG) |
| Time | Latitude | Longitude | Altitude | Speed | Heading |
|---|---|---|---|---|---|
| 2026-05-03 21:10 | 53.43128 | -6.25154 | 225 ft | 0 kts | 186° |
| 2026-05-03 21:24 | 53.43143 | -6.25151 | 226 ft | 3 kts | 185° |
| 2026-05-03 21:24 | 53.43163 | -6.25149 | 225 ft | 3 kts | 184° |
| 2026-05-03 21:25 | 53.43183 | -6.25146 | 225 ft | 3 kts | 191° |
| 2026-05-03 21:25 | 53.43200 | -6.25137 | 226 ft | 3 kts | 227° |
| 2026-05-03 21:25 | 53.43206 | -6.25124 | 225 ft | 0 kts | 275° |
| 2026-05-03 21:30 | 53.43206 | -6.25134 | 225 ft | 5 kts | 275° |
| 2026-05-03 21:30 | 53.43211 | -6.25229 | 225 ft | 8 kts | 275° |
| 2026-05-03 21:30 | 53.43206 | -6.25310 | 226 ft | 7 kts | 255° |
| 2026-05-03 21:31 | 53.43189 | -6.25390 | 225 ft | 8 kts | 253° |
| 2026-05-03 21:31 | 53.43186 | -6.25472 | 225 ft | 6 kts | 259° |
| 2026-05-03 21:31 | 53.43176 | -6.25497 | 226 ft | 9 kts | 224° |
| 2026-05-03 21:31 | 53.43119 | -6.25494 | 226 ft | 8 kts | 159° |
| 2026-05-03 21:32 | 53.43075 | -6.25460 | 225 ft | 8 kts | 156° |
| 2026-05-03 21:32 | 53.42998 | -6.25404 | 225 ft | 12 kts | 157° |
| 2026-05-03 21:32 | 53.42924 | -6.25375 | 225 ft | 12 kts | 191° |
| 2026-05-03 21:32 | 53.42850 | -6.25482 | 227 ft | 13 kts | 225° |
| 2026-05-03 21:33 | 53.42796 | -6.25573 | 231 ft | 13 kts | 225° |
| 2026-05-03 21:33 | 53.42727 | -6.25691 | 226 ft | 15 kts | 225° |
| 2026-05-03 21:33 | 53.42676 | -6.25736 | 225 ft | 11 kts | 181° |
| 2026-05-03 21:33 | 53.42609 | -6.25695 | 227 ft | 9 kts | 160° |
| 2026-05-03 21:34 | 53.42540 | -6.25694 | 226 ft | 11 kts | 206° |
| 2026-05-03 21:34 | 53.42479 | -6.25792 | 225 ft | 15 kts | 226° |
| 2026-05-03 21:34 | 53.42400 | -6.25928 | 225 ft | 15 kts | 225° |
| 2026-05-03 21:34 | 53.42333 | -6.26043 | 226 ft | 13 kts | 225° |
| 2026-05-03 21:35 | 53.42281 | -6.26153 | 225 ft | 12 kts | 245° |
| 2026-05-03 21:35 | 53.42268 | -6.26354 | 225 ft | 20 kts | 274° |
| 2026-05-03 21:35 | 53.42282 | -6.26557 | 227 ft | 16 kts | 276° |
| 2026-05-03 21:35 | 53.42295 | -6.26738 | 225 ft | 15 kts | 276° |
| 2026-05-03 21:36 | 53.42304 | -6.26916 | 225 ft | 17 kts | 274° |
| 2026-05-03 21:36 | 53.42313 | -6.27116 | 225 ft | 17 kts | 274° |
| 2026-05-03 21:36 | 53.42322 | -6.27315 | 227 ft | 18 kts | 275° |
| 2026-05-03 21:36 | 53.42334 | -6.27539 | 225 ft | 20 kts | 275° |
| 2026-05-03 21:37 | 53.42347 | -6.27776 | 225 ft | 21 kts | 276° |
| 2026-05-03 21:37 | 53.42363 | -6.28032 | 225 ft | 23 kts | 276° |
| 2026-05-03 21:37 | 53.42372 | -6.28255 | 225 ft | 13 kts | 253° |
| 2026-05-03 21:37 | 53.42304 | -6.28323 | 229 ft | 9 kts | 146° |
| 2026-05-03 21:38 | 53.42264 | -6.28274 | 231 ft | 4 kts | 143° |
| 2026-05-03 21:38 | 53.42231 | -6.28247 | 236 ft | 7 kts | 160° |
| 2026-05-03 21:38 | 53.42205 | -6.28227 | 240 ft | 6 kts | 144° |
| 2026-05-03 21:38 | 53.42201 | -6.28201 | 237 ft | 0 kts | 96° |
| 2026-05-03 21:39 | 53.42197 | -6.28146 | 237 ft | 31 kts | 96° |
| 2026-05-03 21:39 | 53.42151 | -6.27242 | 231 ft | 121 kts | 94° |
| 2026-05-03 21:39 | 53.42080 | -6.25472 | 430 ft | 170 kts | 94° |
| 2026-05-03 21:39 | 53.41919 | -6.23404 | 947 ft | 189 kts | 95° |
| 2026-05-03 21:40 | 53.41778 | -6.21089 | 1368 ft | 212 kts | 94° |
| 2026-05-03 21:40 | 53.41638 | -6.18495 | 1814 ft | 237 kts | 94° |
| 2026-05-03 21:40 | 53.41485 | -6.15649 | 2485 ft | 250 kts | 94° |
| 2026-05-03 21:40 | 53.41324 | -6.12725 | 3411 ft | 253 kts | 94° |
| 2026-05-03 21:41 | 53.41162 | -6.09774 | 4351 ft | 256 kts | 94° |
| 2026-05-03 21:41 | 53.40995 | -6.06776 | 5266 ft | 260 kts | 94° |
| 2026-05-03 21:41 | 53.40888 | -6.03736 | 6153 ft | 262 kts | 87° |
| 2026-05-03 21:41 | 53.41003 | -6.00665 | 7008 ft | 265 kts | 82° |
| 2026-05-03 21:42 | 53.41229 | -5.97572 | 7834 ft | 269 kts | 80° |
| 2026-05-03 21:42 | 53.41492 | -5.94400 | 8628 ft | 274 kts | 80° |
| 2026-05-03 21:42 | 53.41746 | -5.91297 | 8916 ft | 277 kts | 81° |
| 2026-05-03 21:42 | 53.41995 | -5.88064 | 8990 ft | 277 kts | 81° |
| 2026-05-03 21:43 | 53.42227 | -5.84844 | 8997 ft | 277 kts | 81° |
| 2026-05-03 21:43 | 53.42449 | -5.81637 | 8999 ft | 277 kts | 82° |
| 2026-05-03 21:43 | 53.42666 | -5.78424 | 9149 ft | 282 kts | 82° |
| 2026-05-03 21:43 | 53.42887 | -5.75144 | 10014 ft | 282 kts | 82° |
| 2026-05-03 21:44 | 53.43112 | -5.71802 | 10452 ft | 301 kts | 82° |
| 2026-05-03 21:44 | 53.43356 | -5.68176 | 10690 ft | 324 kts | 82° |
| 2026-05-03 21:44 | 53.43613 | -5.64352 | 11193 ft | 335 kts | 82° |
| 2026-05-03 21:44 | 53.43872 | -5.60422 | 11872 ft | 341 kts | 83° |
| 2026-05-03 21:45 | 53.44127 | -5.56503 | 12541 ft | 346 kts | 83° |
| 2026-05-03 21:45 | 53.44390 | -5.52463 | 13230 ft | 350 kts | 83° |
| 2026-05-03 21:45 | 53.44523 | -5.48317 | 13840 ft | 357 kts | 90° |
| 2026-05-03 21:45 | 53.44437 | -5.44042 | 13970 ft | 377 kts | 91° |
| 2026-05-03 21:46 | 53.44330 | -5.39547 | 14161 ft | 393 kts | 91° |
| 2026-05-03 21:46 | 53.44211 | -5.34979 | 14641 ft | 399 kts | 92° |
| 2026-05-03 21:46 | 53.44082 | -5.30251 | 15208 ft | 403 kts | 92° |
| 2026-05-03 21:46 | 53.43951 | -5.25544 | 15778 ft | 406 kts | 92° |
| 2026-05-03 21:47 | 53.43820 | -5.20805 | 16333 ft | 409 kts | 92° |
| 2026-05-03 21:47 | 53.43691 | -5.16025 | 16867 ft | 412 kts | 92° |
| 2026-05-03 21:47 | 53.43559 | -5.11213 | 17380 ft | 415 kts | 92° |
| 2026-05-03 21:47 | 53.43414 | -5.06359 | 17880 ft | 417 kts | 92° |
| 2026-05-03 21:48 | 53.43260 | -5.01504 | 18358 ft | 420 kts | 92° |
| 2026-05-03 21:48 | 53.43099 | -4.96606 | 18824 ft | 423 kts | 93° |
| 2026-05-03 21:48 | 53.42933 | -4.91656 | 19268 ft | 426 kts | 93° |
| 2026-05-03 21:48 | 53.42765 | -4.86697 | 19698 ft | 428 kts | 93° |
| 2026-05-03 21:49 | 53.42599 | -4.81718 | 20108 ft | 430 kts | 93° |
| 2026-05-03 21:49 | 53.42432 | -4.76684 | 20509 ft | 433 kts | 93° |
| 2026-05-03 21:49 | 53.42263 | -4.71643 | 20894 ft | 435 kts | 93° |
| 2026-05-03 21:49 | 53.42091 | -4.66577 | 21269 ft | 437 kts | 93° |
| 2026-05-03 21:50 | 53.41915 | -4.61474 | 21617 ft | 439 kts | 93° |
| 2026-05-03 21:50 | 53.41736 | -4.56355 | 21955 ft | 441 kts | 93° |
| 2026-05-03 21:50 | 53.41553 | -4.51205 | 22290 ft | 443 kts | 93° |
| 2026-05-03 21:50 | 53.41368 | -4.46041 | 22614 ft | 445 kts | 93° |
| 2026-05-03 21:51 | 53.41181 | -4.40852 | 22927 ft | 447 kts | 93° |
| 2026-05-03 21:51 | 53.40990 | -4.35626 | 23232 ft | 449 kts | 93° |
| 2026-05-03 21:51 | 53.40797 | -4.30396 | 23533 ft | 451 kts | 93° |
| 2026-05-03 21:51 | 53.40600 | -4.25140 | 23824 ft | 453 kts | 93° |
| 2026-05-03 21:52 | 53.40398 | -4.19858 | 24103 ft | 455 kts | 94° |
| 2026-05-03 21:52 | 53.40192 | -4.14564 | 24367 ft | 456 kts | 94° |
| 2026-05-03 21:52 | 53.39984 | -4.09252 | 24620 ft | 458 kts | 94° |
| 2026-05-03 21:52 | 53.39775 | -4.03912 | 24854 ft | 460 kts | 94° |
| 2026-05-03 21:53 | 53.39563 | -3.98549 | 25082 ft | 462 kts | 94° |
| 2026-05-03 21:53 | 53.39346 | -3.93166 | 25305 ft | 463 kts | 94° |
| 2026-05-03 21:53 | 53.39125 | -3.87774 | 25558 ft | 463 kts | 94° |
| 2026-05-03 21:53 | 53.38903 | -3.82438 | 25792 ft | 464 kts | 94° |
| 2026-05-03 21:54 | 53.38603 | -3.77005 | 26074 ft | 463 kts | 101° |
| 2026-05-03 21:54 | 53.37667 | -3.71939 | 26314 ft | 462 kts | 116° |
| 2026-05-03 21:54 | 53.35964 | -3.67299 | 26558 ft | 462 kts | 127° |
| 2026-05-03 21:54 | 53.34046 | -3.62977 | 26815 ft | 462 kts | 127° |
| 2026-05-03 21:55 | 53.32114 | -3.58689 | 27095 ft | 462 kts | 128° |
| 2026-05-03 21:55 | 53.30168 | -3.54411 | 27397 ft | 461 kts | 128° |
| 2026-05-03 21:55 | 53.28223 | -3.50151 | 27700 ft | 460 kts | 128° |
| 2026-05-03 21:55 | 53.26285 | -3.45903 | 27998 ft | 459 kts | 128° |
| 2026-05-03 21:56 | 53.24380 | -3.41721 | 28301 ft | 458 kts | 128° |
| 2026-05-03 21:56 | 53.22434 | -3.37438 | 28600 ft | 458 kts | 128° |
| 2026-05-03 21:56 | 53.20540 | -3.33267 | 28900 ft | 457 kts | 128° |
| 2026-05-03 21:56 | 53.18618 | -3.29045 | 29204 ft | 456 kts | 129° |
| 2026-05-03 21:57 | 53.16704 | -3.24853 | 29508 ft | 455 kts | 129° |
| 2026-05-03 21:57 | 53.14786 | -3.20667 | 29802 ft | 454 kts | 129° |
| 2026-05-03 21:57 | 53.12879 | -3.16504 | 30092 ft | 453 kts | 129° |
| 2026-05-03 21:57 | 53.10980 | -3.12362 | 30387 ft | 452 kts | 129° |
| 2026-05-03 21:58 | 53.09072 | -3.08205 | 30652 ft | 452 kts | 129° |
| 2026-05-03 21:58 | 53.07160 | -3.04050 | 30917 ft | 451 kts | 129° |
| 2026-05-03 21:58 | 53.05258 | -2.99920 | 31178 ft | 451 kts | 129° |
| 2026-05-03 21:58 | 53.03351 | -2.95763 | 31444 ft | 451 kts | 129° |
| 2026-05-03 21:59 | 53.01448 | -2.91622 | 31696 ft | 451 kts | 129° |
| 2026-05-03 21:59 | 52.99543 | -2.87494 | 31955 ft | 451 kts | 130° |
| 2026-05-03 21:59 | 52.97626 | -2.83368 | 32213 ft | 451 kts | 130° |
| 2026-05-03 21:59 | 52.95712 | -2.79264 | 32461 ft | 450 kts | 130° |
| 2026-05-03 22:00 | 52.93793 | -2.75151 | 32710 ft | 450 kts | 130° |
| 2026-05-03 22:00 | 52.91882 | -2.71054 | 32972 ft | 450 kts | 130° |
| 2026-05-03 22:00 | 52.89970 | -2.66954 | 33217 ft | 450 kts | 130° |
| 2026-05-03 22:00 | 52.88061 | -2.62870 | 33466 ft | 449 kts | 130° |
| 2026-05-03 22:01 | 52.86154 | -2.58800 | 33708 ft | 449 kts | 130° |
| 2026-05-03 22:01 | 52.84234 | -2.54724 | 33957 ft | 449 kts | 131° |
| 2026-05-03 22:01 | 52.82285 | -2.50695 | 34194 ft | 447 kts | 135° |
| 2026-05-03 22:01 | 52.80074 | -2.47131 | 34437 ft | 444 kts | 143° |
| 2026-05-03 22:02 | 52.77579 | -2.44146 | 34669 ft | 441 kts | 149° |
| 2026-05-03 22:02 | 52.75021 | -2.41345 | 34890 ft | 442 kts | 149° |
| 2026-05-03 22:02 | 52.72487 | -2.38555 | 35107 ft | 442 kts | 149° |
| 2026-05-03 22:02 | 52.69930 | -2.35735 | 35316 ft | 442 kts | 149° |
| 2026-05-03 22:03 | 52.67378 | -2.32917 | 35520 ft | 442 kts | 149° |
| 2026-05-03 22:03 | 52.64833 | -2.30112 | 35727 ft | 441 kts | 149° |
| 2026-05-03 22:03 | 52.62277 | -2.27303 | 35914 ft | 441 kts | 149° |
| 2026-05-03 22:03 | 52.59720 | -2.24501 | 36098 ft | 441 kts | 149° |
| 2026-05-03 22:04 | 52.57167 | -2.21708 | 36271 ft | 441 kts | 149° |
| 2026-05-03 22:04 | 52.54604 | -2.18908 | 36431 ft | 441 kts | 149° |
| 2026-05-03 22:04 | 52.52049 | -2.16120 | 36595 ft | 441 kts | 149° |
| 2026-05-03 22:04 | 52.49487 | -2.13325 | 36786 ft | 440 kts | 149° |
| 2026-05-03 22:05 | 52.46947 | -2.10554 | 36938 ft | 439 kts | 149° |
| 2026-05-03 22:05 | 52.44391 | -2.07778 | 36969 ft | 440 kts | 149° |
| 2026-05-03 22:05 | 52.39287 | -2.02258 | 36961 ft | 439 kts | 149° |
| 2026-05-03 22:06 | 52.34187 | -1.96761 | 36962 ft | 439 kts | 149° |
| 2026-05-03 22:06 | 52.29099 | -1.91273 | 36961 ft | 438 kts | 149° |
| 2026-05-03 22:07 | 52.24012 | -1.85803 | 36959 ft | 438 kts | 149° |
| 2026-05-03 22:07 | 52.18905 | -1.80334 | 36961 ft | 438 kts | 149° |
| 2026-05-03 22:08 | 52.13829 | -1.74910 | 36958 ft | 438 kts | 150° |
| 2026-05-03 22:08 | 52.08723 | -1.69471 | 36960 ft | 438 kts | 149° |
| 2026-05-03 22:09 | 52.03633 | -1.64046 | 36961 ft | 438 kts | 149° |
| 2026-05-03 22:10 | 51.95985 | -1.55928 | 36958 ft | 438 kts | 150° |
| 2026-05-03 22:10 | 51.90875 | -1.50547 | 36958 ft | 438 kts | 150° |
| 2026-05-03 22:11 | 51.85785 | -1.45210 | 36959 ft | 438 kts | 150° |
| 2026-05-03 22:11 | 51.80643 | -1.39819 | 36958 ft | 438 kts | 150° |
| 2026-05-03 22:12 | 51.75525 | -1.34457 | 36953 ft | 438 kts | 150° |
| 2026-05-03 22:12 | 51.70450 | -1.29155 | 36952 ft | 438 kts | 150° |
| 2026-05-03 22:13 | 51.65323 | -1.23823 | 36953 ft | 438 kts | 150° |
| 2026-05-03 22:13 | 51.60198 | -1.18503 | 36955 ft | 438 kts | 150° |
| 2026-05-03 22:14 | 51.55061 | -1.13193 | 36958 ft | 438 kts | 150° |
| 2026-05-03 22:14 | 51.49937 | -1.07891 | 36958 ft | 438 kts | 150° |
| 2026-05-03 22:15 | 51.44810 | -1.02608 | 36958 ft | 438 kts | 150° |
| 2026-05-03 22:15 | 51.39674 | -0.97341 | 36957 ft | 438 kts | 150° |
| 2026-05-03 22:16 | 51.34550 | -0.92098 | 36956 ft | 438 kts | 150° |
| 2026-05-03 22:16 | 51.29416 | -0.86856 | 36957 ft | 438 kts | 150° |
| 2026-05-03 22:17 | 51.24275 | -0.81614 | 36959 ft | 438 kts | 150° |
| 2026-05-03 22:17 | 51.19130 | -0.76383 | 36959 ft | 438 kts | 150° |
| 2026-05-03 22:18 | 51.14826 | -0.72032 | 36957 ft | 438 kts | 150° |
| 2026-05-03 22:18 | 51.09685 | -0.66844 | 36956 ft | 438 kts | 150° |
| 2026-05-03 22:19 | 51.04978 | -0.60655 | 36956 ft | 445 kts | 134° |
| 2026-05-03 22:19 | 51.01519 | -0.52459 | 36954 ft | 449 kts | 125° |
| 2026-05-03 22:20 | 50.98227 | -0.44028 | 36952 ft | 449 kts | 126° |
| 2026-05-03 22:20 | 50.94922 | -0.35629 | 36952 ft | 449 kts | 126° |
| 2026-05-03 22:21 | 50.91616 | -0.27212 | 36954 ft | 449 kts | 125° |
| 2026-05-03 22:21 | 50.88324 | -0.18810 | 36957 ft | 449 kts | 125° |
| 2026-05-03 22:22 | 50.85018 | -0.10400 | 36959 ft | 449 kts | 126° |
| 2026-05-03 22:22 | 50.83363 | -0.06213 | 36789 ft | 449 kts | 126° |
| 2026-05-03 22:22 | 50.81703 | -0.02024 | 36536 ft | 448 kts | 126° |
| 2026-05-03 22:22 | 50.80049 | 0.02139 | 36292 ft | 448 kts | 126° |
| 2026-05-03 22:23 | 50.78385 | 0.06318 | 36055 ft | 450 kts | 127° |
| 2026-05-03 22:23 | 50.76627 | 0.10408 | 35790 ft | 449 kts | 134° |
| 2026-05-03 22:23 | 50.74571 | 0.13992 | 35545 ft | 444 kts | 142° |
| 2026-05-03 22:23 | 50.72227 | 0.17144 | 35298 ft | 442 kts | 146° |
| 2026-05-03 22:24 | 50.69808 | 0.20231 | 35044 ft | 442 kts | 147° |
| 2026-05-03 22:24 | 50.67412 | 0.23277 | 34796 ft | 442 kts | 147° |
| 2026-05-03 22:24 | 50.65026 | 0.26315 | 34546 ft | 442 kts | 147° |
| 2026-05-03 22:24 | 50.62638 | 0.29360 | 34291 ft | 441 kts | 147° |
| 2026-05-03 22:25 | 50.60257 | 0.32395 | 34048 ft | 441 kts | 147° |
| 2026-05-03 22:25 | 50.57876 | 0.35431 | 33799 ft | 440 kts | 147° |
| 2026-05-03 22:25 | 50.55529 | 0.38429 | 33553 ft | 440 kts | 147° |
| 2026-05-03 22:25 | 50.53118 | 0.41510 | 33298 ft | 440 kts | 147° |
| 2026-05-03 22:26 | 50.50738 | 0.44545 | 33047 ft | 441 kts | 147° |
| 2026-05-03 22:26 | 50.48355 | 0.47577 | 32233 ft | 443 kts | 147° |
| 2026-05-03 22:26 | 50.45949 | 0.50623 | 31166 ft | 446 kts | 147° |
| 2026-05-03 22:26 | 50.43525 | 0.53679 | 30093 ft | 448 kts | 147° |
| 2026-05-03 22:27 | 50.41106 | 0.56732 | 28945 ft | 441 kts | 147° |
| 2026-05-03 22:27 | 50.38750 | 0.59712 | 27850 ft | 431 kts | 147° |
| 2026-05-03 22:27 | 50.36443 | 0.62627 | 26778 ft | 425 kts | 147° |
| 2026-05-03 22:27 | 50.34131 | 0.65525 | 26009 ft | 434 kts | 146° |
| 2026-05-03 22:28 | 50.31687 | 0.68569 | 25029 ft | 451 kts | 146° |
| 2026-05-03 22:28 | 50.29241 | 0.71610 | 24763 ft | 458 kts | 146° |
| 2026-05-03 22:28 | 50.26741 | 0.74733 | 24508 ft | 462 kts | 146° |
| 2026-05-03 22:28 | 50.24226 | 0.77886 | 24256 ft | 464 kts | 145° |
| 2026-05-03 22:29 | 50.21701 | 0.81046 | 24008 ft | 464 kts | 145° |
| 2026-05-03 22:29 | 50.19188 | 0.84188 | 23754 ft | 463 kts | 146° |
| 2026-05-03 22:29 | 50.16678 | 0.87314 | 23503 ft | 461 kts | 146° |
| 2026-05-03 22:29 | 50.14189 | 0.90408 | 23250 ft | 460 kts | 146° |
| 2026-05-03 22:30 | 50.11718 | 0.93479 | 22996 ft | 446 kts | 145° |
| 2026-05-03 22:30 | 50.09341 | 0.96436 | 22736 ft | 428 kts | 146° |
| 2026-05-03 22:30 | 50.07054 | 0.99269 | 22482 ft | 413 kts | 147° |
| 2026-05-03 22:30 | 50.04698 | 1.01655 | 22244 ft | 399 kts | 156° |
| 2026-05-03 22:31 | 50.02213 | 1.03533 | 21995 ft | 395 kts | 159° |
| 2026-05-03 22:31 | 49.99738 | 1.05377 | 21743 ft | 393 kts | 158° |
| 2026-05-03 22:31 | 49.97290 | 1.07216 | 21493 ft | 391 kts | 158° |
| 2026-05-03 22:31 | 49.94844 | 1.09061 | 21245 ft | 390 kts | 158° |
| 2026-05-03 22:32 | 49.92407 | 1.10900 | 20993 ft | 388 kts | 158° |
| 2026-05-03 22:32 | 49.89990 | 1.12716 | 20744 ft | 387 kts | 158° |
| 2026-05-03 22:32 | 49.87564 | 1.14533 | 20492 ft | 386 kts | 158° |
| 2026-05-03 22:32 | 49.85150 | 1.16342 | 20243 ft | 385 kts | 158° |
| 2026-05-03 22:33 | 49.82739 | 1.18148 | 19987 ft | 384 kts | 158° |
| 2026-05-03 22:33 | 49.80345 | 1.19939 | 19738 ft | 383 kts | 158° |
| 2026-05-03 22:33 | 49.77946 | 1.21730 | 19509 ft | 381 kts | 158° |
| 2026-05-03 22:33 | 49.75563 | 1.23508 | 19207 ft | 380 kts | 158° |
| 2026-05-03 22:34 | 49.73179 | 1.25282 | 18834 ft | 378 kts | 158° |
| 2026-05-03 22:34 | 49.70816 | 1.27034 | 18470 ft | 376 kts | 158° |
| 2026-05-03 22:34 | 49.68489 | 1.28758 | 18091 ft | 375 kts | 158° |
| 2026-05-03 22:34 | 49.66119 | 1.30511 | 17721 ft | 373 kts | 158° |
| 2026-05-03 22:35 | 49.63776 | 1.32246 | 17357 ft | 372 kts | 158° |
| 2026-05-03 22:35 | 49.61452 | 1.33971 | 16977 ft | 370 kts | 158° |
| 2026-05-03 22:35 | 49.59140 | 1.35690 | 16617 ft | 369 kts | 158° |
| 2026-05-03 22:35 | 49.56839 | 1.37401 | 16253 ft | 367 kts | 158° |
| 2026-05-03 22:36 | 49.54534 | 1.39108 | 15886 ft | 365 kts | 158° |
| 2026-05-03 22:36 | 49.52241 | 1.40797 | 15531 ft | 364 kts | 158° |
| 2026-05-03 22:36 | 49.49951 | 1.42478 | 15174 ft | 374 kts | 158° |
| 2026-05-03 22:36 | 49.47498 | 1.44254 | 14824 ft | 400 kts | 158° |
| 2026-05-03 22:37 | 49.45012 | 1.46242 | 14470 ft | 408 kts | 149° |
| 2026-05-03 22:37 | 49.42906 | 1.49202 | 14116 ft | 414 kts | 131° |
| 2026-05-03 22:37 | 49.41474 | 1.53055 | 13763 ft | 419 kts | 113° |
| 2026-05-03 22:37 | 49.40890 | 1.57453 | 13413 ft | 424 kts | 94° |
| 2026-05-03 22:38 | 49.41235 | 1.61942 | 13061 ft | 426 kts | 75° |
| 2026-05-03 22:38 | 49.42373 | 1.66133 | 12714 ft | 426 kts | 65° |
| 2026-05-03 22:38 | 49.43642 | 1.70218 | 12360 ft | 423 kts | 65° |
| 2026-05-03 22:38 | 49.44635 | 1.74420 | 12005 ft | 419 kts | 79° |
| 2026-05-03 22:39 | 49.45037 | 1.78834 | 11663 ft | 415 kts | 85° |
| 2026-05-03 22:39 | 49.45182 | 1.83221 | 11305 ft | 410 kts | 97° |
| 2026-05-03 22:39 | 49.44613 | 1.87482 | 11008 ft | 406 kts | 107° |
| 2026-05-03 22:39 | 49.43890 | 1.91683 | 10962 ft | 406 kts | 107° |
| 2026-05-03 22:40 | 49.43162 | 1.95862 | 10970 ft | 407 kts | 107° |
| 2026-05-03 22:40 | 49.42428 | 2.00062 | 10968 ft | 407 kts | 107° |
| 2026-05-03 22:40 | 49.41702 | 2.04236 | 10972 ft | 407 kts | 107° |
| 2026-05-03 22:40 | 49.40971 | 2.08441 | 10970 ft | 407 kts | 107° |
| 2026-05-03 22:41 | 49.40239 | 2.12643 | 10971 ft | 407 kts | 107° |
| 2026-05-03 22:41 | 49.39514 | 2.16798 | 10968 ft | 407 kts | 107° |
| 2026-05-03 22:41 | 49.38783 | 2.20992 | 10936 ft | 406 kts | 107° |
| 2026-05-03 22:41 | 49.38052 | 2.25184 | 10318 ft | 400 kts | 107° |
| 2026-05-03 22:42 | 49.37360 | 2.29163 | 10132 ft | 382 kts | 107° |
| 2026-05-03 22:42 | 49.36708 | 2.32961 | 9969 ft | 352 kts | 107° |
| 2026-05-03 22:42 | 49.36118 | 2.36442 | 9834 ft | 323 kts | 107° |
| 2026-05-03 22:42 | 49.35573 | 2.39698 | 9594 ft | 302 kts | 107° |
| 2026-05-03 22:43 | 49.35057 | 2.42785 | 9044 ft | 295 kts | 107° |
| 2026-05-03 22:43 | 49.34559 | 2.45768 | 8412 ft | 291 kts | 107° |
| 2026-05-03 22:43 | 49.34057 | 2.48804 | 8049 ft | 289 kts | 107° |
| 2026-05-03 22:43 | 49.33570 | 2.51765 | 7995 ft | 291 kts | 107° |
| 2026-05-03 22:44 | 49.33073 | 2.54778 | 8002 ft | 292 kts | 107° |
| 2026-05-03 22:44 | 49.32567 | 2.57851 | 8001 ft | 292 kts | 107° |
| 2026-05-03 22:44 | 49.32077 | 2.60822 | 8003 ft | 292 kts | 107° |
| 2026-05-03 22:44 | 49.31579 | 2.63839 | 8003 ft | 292 kts | 107° |
| 2026-05-03 22:45 | 49.31084 | 2.66836 | 7981 ft | 291 kts | 107° |
| 2026-05-03 22:45 | 49.30584 | 2.69865 | 7590 ft | 289 kts | 107° |
| 2026-05-03 22:45 | 49.30100 | 2.72800 | 7167 ft | 288 kts | 107° |
| 2026-05-03 22:45 | 49.29615 | 2.75800 | 6756 ft | 286 kts | 107° |
| 2026-05-03 22:46 | 49.29143 | 2.78706 | 6365 ft | 283 kts | 107° |
| 2026-05-03 22:46 | 49.28608 | 2.81592 | 5965 ft | 279 kts | 118° |
| 2026-05-03 22:46 | 49.27488 | 2.83958 | 5557 ft | 269 kts | 139° |
| 2026-05-03 22:46 | 49.26136 | 2.85883 | 5145 ft | 268 kts | 142° |
| 2026-05-03 22:47 | 49.24736 | 2.87782 | 4996 ft | 266 kts | 142° |
| 2026-05-03 22:47 | 49.23359 | 2.89625 | 5002 ft | 267 kts | 142° |
| 2026-05-03 22:47 | 49.21987 | 2.91465 | 4998 ft | 254 kts | 142° |
| 2026-05-03 22:47 | 49.20676 | 2.93233 | 5004 ft | 249 kts | 142° |
| 2026-05-03 22:48 | 49.19349 | 2.95015 | 5006 ft | 256 kts | 142° |
| 2026-05-03 22:48 | 49.18011 | 2.96805 | 5004 ft | 257 kts | 142° |
| 2026-05-03 22:48 | 49.17062 | 2.98072 | 5004 ft | 257 kts | 142° |
| 2026-05-03 22:48 | 49.15717 | 2.99866 | 5003 ft | 257 kts | 142° |
| 2026-05-03 22:49 | 49.14372 | 3.01663 | 5004 ft | 257 kts | 142° |
| 2026-05-03 22:49 | 49.13029 | 3.03462 | 5005 ft | 257 kts | 143° |
| 2026-05-03 22:49 | 49.11518 | 3.04785 | 5003 ft | 248 kts | 169° |
| 2026-05-03 22:49 | 49.09828 | 3.04777 | 5003 ft | 243 kts | 199° |
| 2026-05-03 22:50 | 49.08390 | 3.03432 | 5010 ft | 242 kts | 227° |
| 2026-05-03 22:50 | 49.07491 | 3.01268 | 5015 ft | 244 kts | 242° |
| 2026-05-03 22:50 | 49.06735 | 2.98953 | 5007 ft | 245 kts | 242° |
| 2026-05-03 22:50 | 49.05977 | 2.96621 | 5005 ft | 245 kts | 242° |
| 2026-05-03 22:51 | 49.05219 | 2.94302 | 5010 ft | 246 kts | 242° |
| 2026-05-03 22:51 | 49.04594 | 2.91890 | 4882 ft | 246 kts | 255° |
| 2026-05-03 22:51 | 49.04362 | 2.89352 | 4610 ft | 234 kts | 263° |
| 2026-05-03 22:51 | 49.04254 | 2.86923 | 4317 ft | 229 kts | 263° |
| 2026-05-03 22:52 | 49.04141 | 2.84521 | 4018 ft | 226 kts | 263° |
| 2026-05-03 22:52 | 49.04022 | 2.82144 | 3721 ft | 223 kts | 263° |
| 2026-05-03 22:52 | 49.03905 | 2.79834 | 3425 ft | 213 kts | 263° |
| 2026-05-03 22:52 | 49.03793 | 2.77644 | 3179 ft | 201 kts | 263° |
| 2026-05-03 22:53 | 49.03687 | 2.75591 | 2894 ft | 188 kts | 263° |
| 2026-05-03 22:53 | 49.03588 | 2.73669 | 2645 ft | 176 kts | 263° |
| 2026-05-03 22:53 | 49.03494 | 2.71867 | 2443 ft | 163 kts | 263° |
| 2026-05-03 22:53 | 49.03408 | 2.70187 | 2216 ft | 154 kts | 263° |
| 2026-05-03 22:54 | 49.03324 | 2.68604 | 2013 ft | 145 kts | 262° |
| 2026-05-03 22:54 | 49.03246 | 2.67100 | 1826 ft | 141 kts | 263° |
| 2026-05-03 22:54 | 49.03168 | 2.65630 | 1643 ft | 139 kts | 263° |
| 2026-05-03 22:54 | 49.03090 | 2.64145 | 1457 ft | 138 kts | 263° |
| 2026-05-03 22:55 | 49.03038 | 2.63153 | 1339 ft | 138 kts | 263° |
| 2026-05-03 22:55 | 49.02963 | 2.61722 | 1153 ft | 138 kts | 263° |
| 2026-05-03 22:55 | 49.02861 | 2.59796 | 914 ft | 137 kts | 263° |
| 2026-05-03 22:55 | 49.02811 | 2.58817 | 783 ft | 137 kts | 263° |
| 2026-05-03 22:56 | 49.02736 | 2.57372 | 599 ft | 137 kts | 263° |
| 2026-05-03 22:56 | 49.02662 | 2.55934 | 416 ft | 137 kts | 264° |
| 2026-05-03 22:56 | 49.02580 | 2.54558 | 359 ft | 118 kts | 264° |
| 2026-05-03 22:56 | 49.02533 | 2.53704 | 357 ft | 37 kts | 265° |
| 2026-05-03 22:57 | 49.02504 | 2.53512 | 358 ft | 32 kts | 249° |
| 2026-05-03 22:57 | 49.02396 | 2.53227 | 359 ft | 23 kts | 234° |
| 2026-05-03 22:57 | 49.02325 | 2.53075 | 358 ft | 20 kts | 232° |
| 2026-05-03 22:57 | 49.02203 | 2.53002 | 358 ft | 18 kts | 186° |
| 2026-05-03 22:58 | 49.02100 | 2.53018 | 360 ft | 15 kts | 175° |
| 2026-05-03 22:58 | 49.01991 | 2.53030 | 358 ft | 17 kts | 176° |
| 2026-05-03 22:58 | 49.01882 | 2.53047 | 360 ft | 14 kts | 169° |
| 2026-05-03 22:58 | 49.01847 | 2.53177 | 359 ft | 15 kts | 87° |
| 2026-05-03 22:59 | 49.01854 | 2.53333 | 357 ft | 15 kts | 85° |
| 2026-05-03 22:59 | 49.01865 | 2.53489 | 359 ft | 15 kts | 83° |
| 2026-05-03 22:59 | 49.01877 | 2.53645 | 361 ft | 15 kts | 85° |
| 2026-05-03 22:59 | 49.01884 | 2.53803 | 354 ft | 15 kts | 86° |
| 2026-05-03 23:00 | 49.01892 | 2.53959 | 357 ft | 14 kts | 85° |
| 2026-05-03 23:00 | 49.01886 | 2.54102 | 357 ft | 13 kts | 122° |
| 2026-05-03 23:00 | 49.01830 | 2.54175 | 359 ft | 9 kts | 122° |
| 2026-05-03 23:00 | 49.01824 | 2.54279 | 362 ft | 11 kts | 85° |
| 2026-05-03 23:01 | 49.01832 | 2.54440 | 354 ft | 20 kts | 86° |
| 2026-05-03 23:01 | 49.01840 | 2.54657 | 354 ft | 21 kts | 86° |
| 2026-05-03 23:01 | 49.01850 | 2.54890 | 354 ft | 23 kts | 85° |
| 2026-05-03 23:01 | 49.01850 | 2.55095 | 357 ft | 18 kts | 121° |
| 2026-05-03 23:02 | 49.01735 | 2.55138 | 358 ft | 18 kts | 174° |
| 2026-05-03 23:02 | 49.01604 | 2.55157 | 359 ft | 20 kts | 174° |
| 2026-05-03 23:02 | 49.01468 | 2.55179 | 358 ft | 18 kts | 173° |
| 2026-05-03 23:02 | 49.01358 | 2.55213 | 358 ft | 14 kts | 166° |
| 2026-05-03 23:03 | 49.01319 | 2.55219 | 358 ft | 4 kts | 186° |
| 2026-05-03 23:03 | 49.01285 | 2.55204 | 362 ft | 5 kts | 199° |
| 2026-05-03 23:03 | 49.01258 | 2.55190 | 356 ft | 4 kts | 199° |
| 2026-05-03 23:03 | 49.01238 | 2.55179 | 354 ft | 3 kts | 199° |
| 2026-05-03 23:04 | 49.01217 | 2.55168 | 361 ft | 5 kts | 198° |
| 2026-05-03 23:04 | 49.01184 | 2.55159 | 358 ft | 4 kts | 185° |
| 2026-05-03 23:04 | 49.01158 | 2.55162 | 354 ft | 3 kts | 168° |
| 2026-05-03 23:04 | 49.01132 | 2.55172 | 357 ft | 6 kts | 166° |
| 2026-05-03 23:05 | 49.01086 | 2.55191 | 354 ft | 6 kts | 165° |
| 2026-05-03 23:05 | 49.01047 | 2.55207 | 361 ft | 5 kts | 164° |
| 2026-05-03 23:05 | 49.00996 | 2.55230 | 361 ft | 10 kts | 163° |
| 2026-05-03 23:05 | 49.00927 | 2.55262 | 358 ft | 10 kts | 163° |
| 2026-05-03 23:06 | 49.00862 | 2.55292 | 360 ft | 10 kts | 163° |
| 2026-05-03 23:06 | 49.00799 | 2.55321 | 357 ft | 9 kts | 163° |
| 2026-05-03 23:06 | 49.00741 | 2.55347 | 354 ft | 8 kts | 163° |
| 2026-05-03 23:06 | 49.00673 | 2.55378 | 354 ft | 12 kts | 163° |
| 2026-05-03 23:07 | 49.00584 | 2.55415 | 356 ft | 14 kts | 165° |
| 2026-05-03 23:07 | 49.00480 | 2.55458 | 363 ft | 17 kts | 164° |
| 2026-05-03 23:07 | 49.00365 | 2.55507 | 354 ft | 17 kts | 164° |
| 2026-05-03 23:07 | 49.00243 | 2.55561 | 359 ft | 19 kts | 164° |
| 2026-05-03 23:08 | 49.00112 | 2.55618 | 356 ft | 18 kts | 164° |
| 2026-05-03 23:08 | 48.99998 | 2.55667 | 360 ft | 18 kts | 164° |
| 2026-05-03 23:08 | 48.99917 | 2.55776 | 359 ft | 16 kts | 110° |
| 2026-05-03 23:08 | 48.99890 | 2.55949 | 354 ft | 18 kts | 100° |
| 2026-05-03 23:09 | 48.99895 | 2.56149 | 358 ft | 20 kts | 85° |
| 2026-05-03 23:09 | 48.99907 | 2.56370 | 354 ft | 22 kts | 85° |
| 2026-05-03 23:09 | 48.99920 | 2.56595 | 356 ft | 20 kts | 85° |
| 2026-05-03 23:09 | 48.99931 | 2.56806 | 358 ft | 19 kts | 85° |
| 2026-05-03 23:10 | 48.99942 | 2.57018 | 358 ft | 21 kts | 85° |
| 2026-05-03 23:10 | 48.99954 | 2.57235 | 354 ft | 20 kts | 84° |
| 2026-05-03 23:10 | 48.99964 | 2.57415 | 360 ft | 15 kts | 85° |
| 2026-05-03 23:10 | 48.99973 | 2.57580 | 361 ft | 16 kts | 85° |
| 2026-05-03 23:11 | 48.99982 | 2.57751 | 354 ft | 17 kts | 85° |
| 2026-05-03 23:11 | 48.99991 | 2.57933 | 361 ft | 18 kts | 86° |
| 2026-05-03 23:11 | 49.00001 | 2.58133 | 361 ft | 20 kts | 85° |
| 2026-05-03 23:11 | 49.00016 | 2.58303 | 357 ft | 10 kts | 59° |
| 2026-05-03 23:12 | 49.00079 | 2.58321 | 360 ft | 9 kts | 0° |
| 2026-05-03 23:12 | 49.00136 | 2.58314 | 359 ft | 8 kts | 352° |
| 2026-05-03 23:12 | 49.00185 | 2.58303 | 354 ft | 6 kts | 354° |
| 2026-05-03 23:12 | 49.00204 | 2.58344 | 363 ft | 4 kts | 89° |
| 2026-05-03 23:13 | 49.00202 | 2.58386 | 363 ft | 4 kts | 89° |
| 2026-05-03 23:13 | 49.00203 | 2.58416 | 361 ft | 0 kts | 86° |